OVO570D ZUCK-ZPPP
Flight info
| Callsign | OVO570D |
|---|---|
| Flight time | 1h 7m |
| Altitude | 26600 |
| Route | NUDVO1Z NUDVO W30 URGUS/K0820S0780 W30 MEBNA MEBNA4M |
| Aircraft | A319/M-SABDE3FGHIKRWXY/LB1 |
Departure
| Time | 2026-04-20 12:24 |
|---|---|
| Airport | Chongqing Jiangbei International Airport (ZUCK) |
Arrival
| Time | 2026-04-20 13:32 |
|---|---|
| Airport | Kunming Changshui International Airport (ZPPP) |
| Time | Latitude | Longitude | Altitude | Speed | Heading |
|---|---|---|---|---|---|
| 2026-04-20 11:56 | 29.73379 | 106.66015 | 1343 ft | 0 kts | 173° |
| 2026-04-20 12:13 | 29.73387 | 106.66014 | 1338 ft | 4 kts | 172° |
| 2026-04-20 12:13 | 29.73414 | 106.66007 | 1342 ft | 4 kts | 158° |
| 2026-04-20 12:13 | 29.73434 | 106.65991 | 1338 ft | 4 kts | 98° |
| 2026-04-20 12:13 | 29.73435 | 106.65983 | 1341 ft | 0 kts | 82° |
| 2026-04-20 12:14 | 29.73434 | 106.65983 | 1342 ft | 0 kts | 82° |
| 2026-04-20 12:15 | 29.73437 | 106.66005 | 1338 ft | 6 kts | 82° |
| 2026-04-20 12:15 | 29.73458 | 106.66073 | 1336 ft | 12 kts | 51° |
| 2026-04-20 12:16 | 29.73492 | 106.66140 | 1334 ft | 17 kts | 60° |
| 2026-04-20 12:16 | 29.73540 | 106.66248 | 1331 ft | 0 kts | 62° |
| 2026-04-20 12:17 | 29.73542 | 106.66254 | 1331 ft | 3 kts | 73° |
| 2026-04-20 12:17 | 29.73533 | 106.66304 | 1330 ft | 10 kts | 108° |
| 2026-04-20 12:17 | 29.73504 | 106.66405 | 1330 ft | 17 kts | 108° |
| 2026-04-20 12:18 | 29.73403 | 106.66421 | 1327 ft | 18 kts | 195° |
| 2026-04-20 12:18 | 29.73273 | 106.66375 | 1328 ft | 17 kts | 197° |
| 2026-04-20 12:18 | 29.73163 | 106.66334 | 1329 ft | 15 kts | 198° |
| 2026-04-20 12:18 | 29.73055 | 106.66298 | 1330 ft | 17 kts | 196° |
| 2026-04-20 12:19 | 29.72940 | 106.66258 | 1331 ft | 18 kts | 197° |
| 2026-04-20 12:19 | 29.72819 | 106.66216 | 1332 ft | 19 kts | 195° |
| 2026-04-20 12:19 | 29.72688 | 106.66171 | 1333 ft | 20 kts | 197° |
| 2026-04-20 12:19 | 29.72555 | 106.66124 | 1333 ft | 21 kts | 196° |
| 2026-04-20 12:20 | 29.72414 | 106.66075 | 1335 ft | 22 kts | 197° |
| 2026-04-20 12:20 | 29.72268 | 106.66024 | 1336 ft | 22 kts | 197° |
| 2026-04-20 12:20 | 29.72117 | 106.65967 | 1337 ft | 23 kts | 198° |
| 2026-04-20 12:20 | 29.71960 | 106.65909 | 1338 ft | 24 kts | 197° |
| 2026-04-20 12:21 | 29.71796 | 106.65854 | 1338 ft | 25 kts | 195° |
| 2026-04-20 12:21 | 29.71623 | 106.65797 | 1342 ft | 26 kts | 197° |
| 2026-04-20 12:21 | 29.71545 | 106.65781 | 1344 ft | 4 kts | 138° |
| 2026-04-20 12:21 | 29.71531 | 106.65821 | 1343 ft | 7 kts | 105° |
| 2026-04-20 12:22 | 29.71516 | 106.65885 | 1344 ft | 10 kts | 105° |
| 2026-04-20 12:22 | 29.71495 | 106.65969 | 1337 ft | 12 kts | 105° |
| 2026-04-20 12:22 | 29.71468 | 106.66068 | 1337 ft | 13 kts | 107° |
| 2026-04-20 12:22 | 29.71460 | 106.66098 | 1338 ft | 3 kts | 107° |
| 2026-04-20 12:23 | 29.71454 | 106.66122 | 1338 ft | 4 kts | 106° |
| 2026-04-20 12:23 | 29.71463 | 106.66150 | 1341 ft | 5 kts | 45° |
| 2026-04-20 12:23 | 29.71500 | 106.66165 | 1338 ft | 7 kts | 16° |
| 2026-04-20 12:23 | 29.71600 | 106.66200 | 1336 ft | 33 kts | 16° |
| 2026-04-20 12:24 | 29.72003 | 106.66338 | 1334 ft | 87 kts | 17° |
| 2026-04-20 12:24 | 29.72755 | 106.66605 | 1332 ft | 138 kts | 17° |
| 2026-04-20 12:24 | 29.73816 | 106.67002 | 1416 ft | 174 kts | 19° |
| 2026-04-20 12:24 | 29.74954 | 106.67418 | 2112 ft | 169 kts | 17° |
| 2026-04-20 12:25 | 29.76085 | 106.67804 | 2776 ft | 170 kts | 17° |
| 2026-04-20 12:25 | 29.77169 | 106.68337 | 3386 ft | 171 kts | 31° |
| 2026-04-20 12:25 | 29.78195 | 106.69038 | 3988 ft | 171 kts | 35° |
| 2026-04-20 12:25 | 29.79205 | 106.69773 | 4593 ft | 173 kts | 37° |
| 2026-04-20 12:26 | 29.80274 | 106.70559 | 4934 ft | 193 kts | 37° |
| 2026-04-20 12:26 | 29.81474 | 106.71440 | 5216 ft | 216 kts | 36° |
| 2026-04-20 12:26 | 29.82812 | 106.72413 | 5526 ft | 237 kts | 36° |
| 2026-04-20 12:26 | 29.84220 | 106.73553 | 5940 ft | 254 kts | 47° |
| 2026-04-20 12:27 | 29.85297 | 106.75180 | 6565 ft | 261 kts | 66° |
| 2026-04-20 12:27 | 29.85850 | 106.77222 | 7105 ft | 273 kts | 87° |
| 2026-04-20 12:27 | 29.85729 | 106.79405 | 7871 ft | 276 kts | 106° |
| 2026-04-20 12:27 | 29.85173 | 106.81552 | 8685 ft | 282 kts | 109° |
| 2026-04-20 12:28 | 29.84598 | 106.83708 | 9470 ft | 288 kts | 108° |
| 2026-04-20 12:28 | 29.83996 | 106.85970 | 10119 ft | 301 kts | 108° |
| 2026-04-20 12:28 | 29.83364 | 106.88337 | 10382 ft | 324 kts | 108° |
| 2026-04-20 12:28 | 29.82680 | 106.90906 | 10628 ft | 347 kts | 108° |
| 2026-04-20 12:29 | 29.81962 | 106.93621 | 11125 ft | 359 kts | 108° |
| 2026-04-20 12:29 | 29.81131 | 106.96352 | 11711 ft | 364 kts | 118° |
| 2026-04-20 12:29 | 29.79615 | 106.98686 | 12303 ft | 367 kts | 139° |
| 2026-04-20 12:29 | 29.77464 | 107.00238 | 12915 ft | 368 kts | 161° |
| 2026-04-20 12:30 | 29.74967 | 107.00791 | 13534 ft | 367 kts | 182° |
| 2026-04-20 12:30 | 29.72461 | 107.00314 | 14109 ft | 366 kts | 199° |
| 2026-04-20 12:30 | 29.70013 | 106.99457 | 14660 ft | 369 kts | 199° |
| 2026-04-20 12:30 | 29.67560 | 106.98594 | 15222 ft | 371 kts | 199° |
| 2026-04-20 12:31 | 29.65072 | 106.97720 | 15786 ft | 373 kts | 199° |
| 2026-04-20 12:31 | 29.62577 | 106.96852 | 16349 ft | 376 kts | 198° |
| 2026-04-20 12:31 | 29.59985 | 106.96299 | 16900 ft | 383 kts | 188° |
| 2026-04-20 12:31 | 29.57306 | 106.96225 | 17444 ft | 387 kts | 184° |
| 2026-04-20 12:32 | 29.54607 | 106.96202 | 18009 ft | 389 kts | 184° |
| 2026-04-20 12:32 | 29.51888 | 106.96171 | 18509 ft | 393 kts | 184° |
| 2026-04-20 12:32 | 29.49147 | 106.96138 | 18975 ft | 396 kts | 184° |
| 2026-04-20 12:32 | 29.46396 | 106.95902 | 19423 ft | 396 kts | 193° |
| 2026-04-20 12:33 | 29.43737 | 106.95098 | 19886 ft | 396 kts | 203° |
| 2026-04-20 12:33 | 29.41236 | 106.93780 | 20373 ft | 397 kts | 210° |
| 2026-04-20 12:33 | 29.38767 | 106.92349 | 20820 ft | 400 kts | 209° |
| 2026-04-20 12:33 | 29.36266 | 106.90907 | 21286 ft | 403 kts | 209° |
| 2026-04-20 12:34 | 29.33745 | 106.89460 | 21747 ft | 407 kts | 209° |
| 2026-04-20 12:34 | 29.31209 | 106.88011 | 22153 ft | 410 kts | 209° |
| 2026-04-20 12:34 | 29.28643 | 106.86544 | 22590 ft | 413 kts | 209° |
| 2026-04-20 12:34 | 29.26065 | 106.85065 | 23004 ft | 416 kts | 209° |
| 2026-04-20 12:35 | 29.23510 | 106.83597 | 23405 ft | 418 kts | 209° |
| 2026-04-20 12:35 | 29.20895 | 106.82097 | 23752 ft | 421 kts | 209° |
| 2026-04-20 12:35 | 29.18271 | 106.80595 | 24088 ft | 423 kts | 209° |
| 2026-04-20 12:35 | 29.15625 | 106.79081 | 24430 ft | 426 kts | 209° |
| 2026-04-20 12:36 | 29.12972 | 106.77567 | 24795 ft | 428 kts | 210° |
| 2026-04-20 12:36 | 29.10300 | 106.76044 | 25144 ft | 430 kts | 209° |
| 2026-04-20 12:36 | 29.07623 | 106.74515 | 25484 ft | 432 kts | 209° |
| 2026-04-20 12:36 | 29.04929 | 106.72980 | 25830 ft | 434 kts | 209° |
| 2026-04-20 12:37 | 29.02217 | 106.71436 | 26171 ft | 436 kts | 209° |
| 2026-04-20 12:37 | 28.99495 | 106.69888 | 26441 ft | 438 kts | 210° |
| 2026-04-20 12:37 | 28.96776 | 106.68338 | 26508 ft | 437 kts | 209° |
| 2026-04-20 12:37 | 28.94056 | 106.66789 | 26518 ft | 436 kts | 210° |
| 2026-04-20 12:38 | 28.91338 | 106.65243 | 26519 ft | 436 kts | 210° |
| 2026-04-20 12:38 | 28.88621 | 106.63697 | 26520 ft | 436 kts | 210° |
| 2026-04-20 12:38 | 28.85904 | 106.62154 | 26520 ft | 437 kts | 210° |
| 2026-04-20 12:38 | 28.83187 | 106.60612 | 26519 ft | 436 kts | 210° |
| 2026-04-20 12:39 | 28.77748 | 106.57524 | 26525 ft | 437 kts | 210° |
| 2026-04-20 12:39 | 28.75028 | 106.55990 | 26522 ft | 437 kts | 208° |
| 2026-04-20 12:39 | 28.72165 | 106.54770 | 26523 ft | 441 kts | 199° |
| 2026-04-20 12:40 | 28.69140 | 106.54120 | 26524 ft | 446 kts | 188° |
| 2026-04-20 12:40 | 28.66030 | 106.54026 | 26520 ft | 448 kts | 183° |
| 2026-04-20 12:40 | 28.62908 | 106.54042 | 26517 ft | 448 kts | 183° |
| 2026-04-20 12:40 | 28.59789 | 106.54049 | 26511 ft | 448 kts | 183° |
| 2026-04-20 12:41 | 28.56671 | 106.54051 | 26511 ft | 448 kts | 183° |
| 2026-04-20 12:41 | 28.53550 | 106.54053 | 26515 ft | 449 kts | 184° |
| 2026-04-20 12:41 | 28.50426 | 106.54055 | 26512 ft | 449 kts | 183° |
| 2026-04-20 12:41 | 28.47304 | 106.54058 | 26514 ft | 449 kts | 184° |
| 2026-04-20 12:42 | 28.44182 | 106.54057 | 26515 ft | 449 kts | 184° |
| 2026-04-20 12:42 | 28.41062 | 106.54057 | 26513 ft | 449 kts | 184° |
| 2026-04-20 12:42 | 28.37944 | 106.54058 | 26512 ft | 449 kts | 184° |
| 2026-04-20 12:42 | 28.34828 | 106.54059 | 26513 ft | 449 kts | 184° |
| 2026-04-20 12:43 | 28.31698 | 106.54060 | 26512 ft | 449 kts | 184° |
| 2026-04-20 12:43 | 28.28572 | 106.54064 | 26514 ft | 449 kts | 184° |
| 2026-04-20 12:43 | 28.25469 | 106.54069 | 26510 ft | 449 kts | 183° |
| 2026-04-20 12:43 | 28.22371 | 106.54074 | 26513 ft | 449 kts | 183° |
| 2026-04-20 12:44 | 28.19254 | 106.54047 | 26513 ft | 447 kts | 187° |
| 2026-04-20 12:44 | 28.16218 | 106.53459 | 26516 ft | 440 kts | 200° |
| 2026-04-20 12:44 | 28.13421 | 106.52133 | 26512 ft | 434 kts | 213° |
| 2026-04-20 12:44 | 28.10990 | 106.50159 | 26512 ft | 428 kts | 225° |
| 2026-04-20 12:45 | 28.09020 | 106.47664 | 26512 ft | 424 kts | 237° |
| 2026-04-20 12:45 | 28.07579 | 106.44774 | 26512 ft | 420 kts | 249° |
| 2026-04-20 12:45 | 28.06539 | 106.41689 | 26513 ft | 420 kts | 251° |
| 2026-04-20 12:45 | 28.05513 | 106.38601 | 26509 ft | 420 kts | 251° |
| 2026-04-20 12:46 | 28.04478 | 106.35506 | 26511 ft | 420 kts | 251° |
| 2026-04-20 12:46 | 28.03442 | 106.32418 | 26513 ft | 420 kts | 251° |
| 2026-04-20 12:46 | 28.02404 | 106.29326 | 26511 ft | 420 kts | 251° |
| 2026-04-20 12:46 | 28.01368 | 106.26231 | 26512 ft | 421 kts | 251° |
| 2026-04-20 12:47 | 28.00332 | 106.23129 | 26514 ft | 421 kts | 251° |
| 2026-04-20 12:47 | 27.99297 | 106.20038 | 26518 ft | 421 kts | 251° |
| 2026-04-20 12:47 | 27.98255 | 106.16938 | 26520 ft | 421 kts | 251° |
| 2026-04-20 12:47 | 27.97216 | 106.13848 | 26518 ft | 421 kts | 250° |
| 2026-04-20 12:48 | 27.96178 | 106.10750 | 26520 ft | 420 kts | 251° |
| 2026-04-20 12:48 | 27.95157 | 106.07659 | 26522 ft | 420 kts | 251° |
| 2026-04-20 12:48 | 27.94140 | 106.04559 | 26525 ft | 420 kts | 251° |
| 2026-04-20 12:48 | 27.93126 | 106.01460 | 26527 ft | 420 kts | 251° |
| 2026-04-20 12:49 | 27.92111 | 105.98368 | 26527 ft | 420 kts | 251° |
| 2026-04-20 12:49 | 27.91092 | 105.95274 | 26528 ft | 420 kts | 251° |
| 2026-04-20 12:49 | 27.90070 | 105.92180 | 26530 ft | 420 kts | 251° |
| 2026-04-20 12:49 | 27.89048 | 105.89093 | 26526 ft | 419 kts | 251° |
| 2026-04-20 12:50 | 27.88024 | 105.86006 | 26529 ft | 420 kts | 251° |
| 2026-04-20 12:50 | 27.86998 | 105.82917 | 26529 ft | 419 kts | 251° |
| 2026-04-20 12:50 | 27.85976 | 105.79837 | 26523 ft | 419 kts | 251° |
| 2026-04-20 12:50 | 27.84953 | 105.76751 | 26531 ft | 419 kts | 251° |
| 2026-04-20 12:51 | 27.83930 | 105.73671 | 26529 ft | 419 kts | 251° |
| 2026-04-20 12:51 | 27.82905 | 105.70584 | 26525 ft | 419 kts | 251° |
| 2026-04-20 12:51 | 27.81883 | 105.67507 | 26531 ft | 419 kts | 251° |
| 2026-04-20 12:51 | 27.80855 | 105.64421 | 26533 ft | 419 kts | 251° |
| 2026-04-20 12:52 | 27.79832 | 105.61349 | 26535 ft | 419 kts | 251° |
| 2026-04-20 12:52 | 27.78804 | 105.58266 | 26537 ft | 419 kts | 251° |
| 2026-04-20 12:52 | 27.77778 | 105.55188 | 26538 ft | 419 kts | 251° |
| 2026-04-20 12:52 | 27.76753 | 105.52116 | 26537 ft | 419 kts | 251° |
| 2026-04-20 12:53 | 27.75725 | 105.49042 | 26536 ft | 419 kts | 251° |
| 2026-04-20 12:53 | 27.74697 | 105.45966 | 26534 ft | 419 kts | 251° |
| 2026-04-20 12:53 | 27.73668 | 105.42893 | 26538 ft | 419 kts | 251° |
| 2026-04-20 12:53 | 27.72637 | 105.39819 | 26536 ft | 419 kts | 251° |
| 2026-04-20 12:54 | 27.71604 | 105.36747 | 26532 ft | 419 kts | 251° |
| 2026-04-20 12:54 | 27.70572 | 105.33673 | 26536 ft | 419 kts | 251° |
| 2026-04-20 12:54 | 27.69540 | 105.30602 | 26536 ft | 418 kts | 251° |
| 2026-04-20 12:54 | 27.68506 | 105.27534 | 26541 ft | 418 kts | 251° |
| 2026-04-20 12:55 | 27.67474 | 105.24470 | 26538 ft | 418 kts | 251° |
| 2026-04-20 12:55 | 27.66441 | 105.21405 | 26536 ft | 418 kts | 251° |
| 2026-04-20 12:55 | 27.65408 | 105.18344 | 26529 ft | 418 kts | 251° |
| 2026-04-20 12:55 | 27.64375 | 105.15280 | 26529 ft | 417 kts | 251° |
| 2026-04-20 12:56 | 27.63158 | 105.12311 | 26531 ft | 419 kts | 242° |
| 2026-04-20 12:56 | 27.61481 | 105.09607 | 26523 ft | 423 kts | 232° |
| 2026-04-20 12:56 | 27.59418 | 105.07226 | 26526 ft | 425 kts | 227° |
| 2026-04-20 12:56 | 27.57288 | 105.04909 | 26526 ft | 425 kts | 227° |
| 2026-04-20 12:57 | 27.55165 | 105.02596 | 26522 ft | 425 kts | 227° |
| 2026-04-20 12:57 | 27.53036 | 105.00274 | 26521 ft | 425 kts | 227° |
| 2026-04-20 12:57 | 27.50909 | 104.97954 | 26519 ft | 426 kts | 227° |
| 2026-04-20 12:57 | 27.48785 | 104.95637 | 26519 ft | 426 kts | 227° |
| 2026-04-20 12:58 | 27.46653 | 104.93316 | 26521 ft | 426 kts | 227° |
| 2026-04-20 12:58 | 27.44526 | 104.91003 | 26516 ft | 425 kts | 227° |
| 2026-04-20 12:58 | 27.42395 | 104.88686 | 26520 ft | 426 kts | 227° |
| 2026-04-20 12:58 | 27.40270 | 104.86375 | 26523 ft | 425 kts | 227° |
| 2026-04-20 12:59 | 27.38142 | 104.84062 | 26523 ft | 425 kts | 227° |
| 2026-04-20 12:59 | 27.36013 | 104.81749 | 26526 ft | 425 kts | 227° |
| 2026-04-20 12:59 | 27.33892 | 104.79445 | 26526 ft | 425 kts | 228° |
| 2026-04-20 12:59 | 27.31764 | 104.77134 | 26524 ft | 425 kts | 227° |
| 2026-04-20 13:00 | 27.29637 | 104.74829 | 26527 ft | 425 kts | 227° |
| 2026-04-20 13:00 | 27.27510 | 104.72526 | 26532 ft | 425 kts | 227° |
| 2026-04-20 13:00 | 27.25384 | 104.70224 | 26535 ft | 425 kts | 227° |
| 2026-04-20 13:00 | 27.23285 | 104.67950 | 26527 ft | 424 kts | 227° |
| 2026-04-20 13:01 | 27.21156 | 104.65657 | 26525 ft | 424 kts | 227° |
| 2026-04-20 13:01 | 27.19017 | 104.63367 | 26533 ft | 425 kts | 227° |
| 2026-04-20 13:01 | 27.16878 | 104.61083 | 26526 ft | 425 kts | 227° |
| 2026-04-20 13:01 | 27.14739 | 104.58801 | 26526 ft | 425 kts | 227° |
| 2026-04-20 13:02 | 27.12597 | 104.56511 | 26428 ft | 426 kts | 227° |
| 2026-04-20 13:02 | 27.10451 | 104.54218 | 26067 ft | 426 kts | 227° |
| 2026-04-20 13:02 | 27.08305 | 104.51921 | 25713 ft | 427 kts | 227° |
| 2026-04-20 13:02 | 27.06154 | 104.49623 | 25365 ft | 428 kts | 227° |
| 2026-04-20 13:03 | 27.03993 | 104.47318 | 25023 ft | 429 kts | 227° |
| 2026-04-20 13:03 | 27.02532 | 104.45760 | 24790 ft | 429 kts | 226° |
| 2026-04-20 13:03 | 27.00373 | 104.43462 | 24452 ft | 427 kts | 226° |
| 2026-04-20 13:03 | 26.98251 | 104.41203 | 24123 ft | 425 kts | 226° |
| 2026-04-20 13:04 | 26.96112 | 104.38925 | 23797 ft | 423 kts | 226° |
| 2026-04-20 13:04 | 26.93986 | 104.36660 | 23465 ft | 421 kts | 226° |
| 2026-04-20 13:04 | 26.91869 | 104.34404 | 23071 ft | 419 kts | 226° |
| 2026-04-20 13:04 | 26.89768 | 104.32166 | 22689 ft | 416 kts | 226° |
| 2026-04-20 13:05 | 26.87677 | 104.29942 | 22303 ft | 413 kts | 226° |
| 2026-04-20 13:05 | 26.85590 | 104.27736 | 21921 ft | 411 kts | 225° |
| 2026-04-20 13:05 | 26.83460 | 104.25616 | 21551 ft | 409 kts | 223° |
| 2026-04-20 13:05 | 26.81295 | 104.23576 | 21182 ft | 406 kts | 222° |
| 2026-04-20 13:06 | 26.79117 | 104.21585 | 20819 ft | 403 kts | 221° |
| 2026-04-20 13:06 | 26.76938 | 104.19616 | 20460 ft | 401 kts | 221° |
| 2026-04-20 13:06 | 26.74785 | 104.17663 | 20100 ft | 397 kts | 221° |
| 2026-04-20 13:06 | 26.72653 | 104.15707 | 19750 ft | 395 kts | 221° |
| 2026-04-20 13:07 | 26.70549 | 104.13752 | 19403 ft | 392 kts | 222° |
| 2026-04-20 13:07 | 26.68459 | 104.11792 | 19060 ft | 390 kts | 222° |
| 2026-04-20 13:07 | 26.66387 | 104.09844 | 18717 ft | 388 kts | 222° |
| 2026-04-20 13:07 | 26.64329 | 104.07912 | 18382 ft | 385 kts | 222° |
| 2026-04-20 13:08 | 26.62285 | 104.06002 | 18023 ft | 382 kts | 222° |
| 2026-04-20 13:08 | 26.60250 | 104.04107 | 17689 ft | 379 kts | 222° |
| 2026-04-20 13:08 | 26.58221 | 104.02222 | 17704 ft | 380 kts | 222° |
| 2026-04-20 13:08 | 26.56186 | 104.00328 | 17707 ft | 380 kts | 222° |
| 2026-04-20 13:09 | 26.54155 | 103.98440 | 17702 ft | 380 kts | 221° |
| 2026-04-20 13:09 | 26.52124 | 103.96552 | 17697 ft | 380 kts | 221° |
| 2026-04-20 13:09 | 26.50088 | 103.94662 | 17699 ft | 381 kts | 222° |
| 2026-04-20 13:09 | 26.48052 | 103.92770 | 17694 ft | 381 kts | 221° |
| 2026-04-20 13:10 | 26.46017 | 103.90877 | 17694 ft | 381 kts | 222° |
| 2026-04-20 13:10 | 26.43976 | 103.88980 | 17561 ft | 381 kts | 221° |
| 2026-04-20 13:10 | 26.41939 | 103.87093 | 17401 ft | 381 kts | 221° |
| 2026-04-20 13:10 | 26.39902 | 103.85209 | 17248 ft | 380 kts | 221° |
| 2026-04-20 13:11 | 26.37867 | 103.83325 | 17093 ft | 380 kts | 221° |
| 2026-04-20 13:11 | 26.35836 | 103.81441 | 16936 ft | 380 kts | 221° |
| 2026-04-20 13:11 | 26.33833 | 103.79583 | 16791 ft | 380 kts | 221° |
| 2026-04-20 13:11 | 26.31809 | 103.77704 | 16636 ft | 379 kts | 221° |
| 2026-04-20 13:12 | 26.29781 | 103.75826 | 16489 ft | 378 kts | 221° |
| 2026-04-20 13:12 | 26.27755 | 103.73956 | 16340 ft | 378 kts | 221° |
| 2026-04-20 13:12 | 26.25734 | 103.72091 | 16195 ft | 377 kts | 221° |
| 2026-04-20 13:12 | 26.23717 | 103.70229 | 16049 ft | 377 kts | 221° |
| 2026-04-20 13:13 | 26.21702 | 103.68369 | 15904 ft | 376 kts | 221° |
| 2026-04-20 13:13 | 26.19690 | 103.66511 | 15763 ft | 375 kts | 221° |
| 2026-04-20 13:13 | 26.17583 | 103.64803 | 15620 ft | 376 kts | 214° |
| 2026-04-20 13:13 | 26.15288 | 103.63401 | 15468 ft | 376 kts | 209° |
| 2026-04-20 13:14 | 26.12955 | 103.62075 | 15330 ft | 377 kts | 209° |
| 2026-04-20 13:14 | 26.10622 | 103.60747 | 15194 ft | 376 kts | 209° |
| 2026-04-20 13:14 | 26.08302 | 103.59424 | 15052 ft | 373 kts | 209° |
| 2026-04-20 13:14 | 26.06002 | 103.58107 | 14912 ft | 372 kts | 209° |
| 2026-04-20 13:15 | 26.03706 | 103.56788 | 14768 ft | 371 kts | 209° |
| 2026-04-20 13:15 | 26.01409 | 103.55472 | 14637 ft | 370 kts | 209° |
| 2026-04-20 13:15 | 25.99124 | 103.54169 | 14496 ft | 369 kts | 209° |
| 2026-04-20 13:15 | 25.96864 | 103.52880 | 14359 ft | 359 kts | 209° |
| 2026-04-20 13:16 | 25.94678 | 103.51635 | 14217 ft | 346 kts | 209° |
| 2026-04-20 13:16 | 25.92576 | 103.50440 | 14075 ft | 333 kts | 209° |
| 2026-04-20 13:16 | 25.90553 | 103.49289 | 13946 ft | 321 kts | 209° |
| 2026-04-20 13:16 | 25.88604 | 103.48177 | 13809 ft | 310 kts | 210° |
| 2026-04-20 13:17 | 25.86711 | 103.47096 | 13669 ft | 302 kts | 210° |
| 2026-04-20 13:17 | 25.84857 | 103.46038 | 13517 ft | 298 kts | 210° |
| 2026-04-20 13:17 | 25.83024 | 103.44994 | 13361 ft | 296 kts | 210° |
| 2026-04-20 13:17 | 25.81192 | 103.43949 | 13212 ft | 296 kts | 210° |
| 2026-04-20 13:18 | 25.79367 | 103.42909 | 13058 ft | 295 kts | 210° |
| 2026-04-20 13:18 | 25.77548 | 103.41873 | 12910 ft | 293 kts | 210° |
| 2026-04-20 13:18 | 25.75739 | 103.40843 | 12758 ft | 292 kts | 210° |
| 2026-04-20 13:18 | 25.73933 | 103.39816 | 12613 ft | 292 kts | 210° |
| 2026-04-20 13:19 | 25.72126 | 103.38790 | 12466 ft | 291 kts | 210° |
| 2026-04-20 13:19 | 25.70329 | 103.37770 | 12322 ft | 290 kts | 210° |
| 2026-04-20 13:19 | 25.68536 | 103.36756 | 12159 ft | 286 kts | 209° |
| 2026-04-20 13:19 | 25.66792 | 103.35769 | 12023 ft | 278 kts | 210° |
| 2026-04-20 13:20 | 25.65093 | 103.34806 | 11873 ft | 268 kts | 209° |
| 2026-04-20 13:20 | 25.63463 | 103.33881 | 11760 ft | 259 kts | 210° |
| 2026-04-20 13:20 | 25.61894 | 103.32992 | 11729 ft | 248 kts | 210° |
| 2026-04-20 13:20 | 25.60395 | 103.32143 | 11734 ft | 236 kts | 210° |
| 2026-04-20 13:21 | 25.58947 | 103.31322 | 11739 ft | 232 kts | 211° |
| 2026-04-20 13:21 | 25.57516 | 103.30511 | 11739 ft | 231 kts | 210° |
| 2026-04-20 13:21 | 25.56086 | 103.29699 | 11737 ft | 230 kts | 210° |
| 2026-04-20 13:21 | 25.54654 | 103.28888 | 11743 ft | 231 kts | 210° |
| 2026-04-20 13:22 | 25.53220 | 103.28076 | 11742 ft | 232 kts | 211° |
| 2026-04-20 13:22 | 25.51785 | 103.27264 | 11743 ft | 232 kts | 211° |
| 2026-04-20 13:22 | 25.50345 | 103.26448 | 11746 ft | 232 kts | 211° |
| 2026-04-20 13:22 | 25.48912 | 103.25634 | 11748 ft | 231 kts | 211° |
| 2026-04-20 13:23 | 25.47484 | 103.24844 | 11639 ft | 233 kts | 210° |
| 2026-04-20 13:23 | 25.46030 | 103.24067 | 11473 ft | 231 kts | 209° |
| 2026-04-20 13:23 | 25.44562 | 103.23289 | 11301 ft | 230 kts | 209° |
| 2026-04-20 13:23 | 25.43137 | 103.22532 | 11142 ft | 230 kts | 209° |
| 2026-04-20 13:24 | 25.41678 | 103.21755 | 10972 ft | 230 kts | 210° |
| 2026-04-20 13:24 | 25.40299 | 103.20912 | 10807 ft | 222 kts | 220° |
| 2026-04-20 13:24 | 25.39106 | 103.19866 | 10652 ft | 217 kts | 221° |
| 2026-04-20 13:24 | 25.37968 | 103.18802 | 10486 ft | 212 kts | 224° |
| 2026-04-20 13:25 | 25.36885 | 103.17783 | 10338 ft | 207 kts | 222° |
| 2026-04-20 13:25 | 25.35751 | 103.16777 | 10179 ft | 204 kts | 221° |
| 2026-04-20 13:25 | 25.34662 | 103.15827 | 10023 ft | 201 kts | 221° |
| 2026-04-20 13:25 | 25.33568 | 103.14876 | 9893 ft | 199 kts | 221° |
| 2026-04-20 13:26 | 25.32480 | 103.13930 | 9809 ft | 200 kts | 221° |
| 2026-04-20 13:26 | 25.31390 | 103.12983 | 9793 ft | 199 kts | 221° |
| 2026-04-20 13:26 | 25.30299 | 103.12035 | 9796 ft | 200 kts | 221° |
| 2026-04-20 13:26 | 25.29205 | 103.11085 | 9806 ft | 200 kts | 221° |
| 2026-04-20 13:27 | 25.28114 | 103.10139 | 9805 ft | 199 kts | 221° |
| 2026-04-20 13:27 | 25.27025 | 103.09193 | 9807 ft | 199 kts | 221° |
| 2026-04-20 13:27 | 25.25937 | 103.08249 | 9811 ft | 199 kts | 221° |
| 2026-04-20 13:27 | 25.24849 | 103.07306 | 9829 ft | 194 kts | 221° |
| 2026-04-20 13:28 | 25.23799 | 103.06395 | 9799 ft | 193 kts | 221° |
| 2026-04-20 13:28 | 25.22736 | 103.05473 | 9628 ft | 194 kts | 223° |
| 2026-04-20 13:28 | 25.21676 | 103.04554 | 9405 ft | 194 kts | 222° |
| 2026-04-20 13:28 | 25.20641 | 103.03659 | 9161 ft | 182 kts | 222° |
| 2026-04-20 13:29 | 25.19680 | 103.02826 | 8937 ft | 169 kts | 221° |
| 2026-04-20 13:29 | 25.18793 | 103.02058 | 8734 ft | 154 kts | 220° |
| 2026-04-20 13:29 | 25.17974 | 103.01348 | 8543 ft | 147 kts | 220° |
| 2026-04-20 13:29 | 25.17165 | 103.00654 | 8328 ft | 147 kts | 220° |
| 2026-04-20 13:30 | 25.16358 | 102.99998 | 8158 ft | 142 kts | 221° |
| 2026-04-20 13:30 | 25.15594 | 102.99307 | 7974 ft | 142 kts | 224° |
| 2026-04-20 13:30 | 25.14836 | 102.98625 | 7818 ft | 145 kts | 220° |
| 2026-04-20 13:30 | 25.14042 | 102.97941 | 7539 ft | 144 kts | 218° |
| 2026-04-20 13:31 | 25.13252 | 102.97252 | 7369 ft | 144 kts | 218° |
| 2026-04-20 13:31 | 25.12466 | 102.96572 | 7155 ft | 143 kts | 218° |
| 2026-04-20 13:31 | 25.11681 | 102.95891 | 6986 ft | 144 kts | 218° |
| 2026-04-20 13:31 | 25.10922 | 102.95256 | 6901 ft | 123 kts | 218° |
| 2026-04-20 13:32 | 25.10377 | 102.94787 | 6900 ft | 73 kts | 219° |
| 2026-04-20 13:32 | 25.10106 | 102.94540 | 6902 ft | 36 kts | 219° |
| 2026-04-20 13:32 | 25.09980 | 102.94400 | 6903 ft | 20 kts | 239° |
| 2026-04-20 13:32 | 25.09933 | 102.94258 | 6899 ft | 16 kts | 248° |
| 2026-04-20 13:33 | 25.09896 | 102.94161 | 6896 ft | 16 kts | 246° |
| 2026-04-20 13:33 | 25.09822 | 102.94054 | 6895 ft | 20 kts | 219° |
| 2026-04-20 13:33 | 25.09715 | 102.93961 | 6895 ft | 11 kts | 218° |
| 2026-04-20 13:33 | 25.09722 | 102.93879 | 6893 ft | 14 kts | 308° |
| 2026-04-20 13:34 | 25.09796 | 102.93785 | 6893 ft | 17 kts | 311° |
| 2026-04-20 13:34 | 25.09865 | 102.93688 | 6894 ft | 17 kts | 306° |
| 2026-04-20 13:34 | 25.09900 | 102.93635 | 6894 ft | 2 kts | 306° |
| 2026-04-20 13:34 | 25.09901 | 102.93634 | 6894 ft | 1 kts | 306° |
| 2026-04-20 13:35 | 25.09907 | 102.93625 | 6894 ft | 2 kts | 308° |
| 2026-04-20 13:35 | 25.09922 | 102.93606 | 6894 ft | 4 kts | 310° |
| 2026-04-20 13:35 | 25.09945 | 102.93577 | 6895 ft | 6 kts | 310° |
| 2026-04-20 13:35 | 25.09976 | 102.93537 | 6895 ft | 8 kts | 310° |
| 2026-04-20 13:36 | 25.10015 | 102.93485 | 6895 ft | 10 kts | 309° |
| 2026-04-20 13:36 | 25.10054 | 102.93416 | 6896 ft | 12 kts | 290° |
| 2026-04-20 13:36 | 25.10076 | 102.93324 | 6896 ft | 13 kts | 284° |
| 2026-04-20 13:36 | 25.10092 | 102.93245 | 6897 ft | 8 kts | 283° |
| 2026-04-20 13:37 | 25.10099 | 102.93213 | 6897 ft | 3 kts | 284° |
| 2026-04-20 13:37 | 25.10120 | 102.93197 | 6897 ft | 4 kts | 340° |
| 2026-04-20 13:37 | 25.10156 | 102.93200 | 6897 ft | 6 kts | 11° |
| 2026-04-20 13:37 | 25.10199 | 102.93207 | 6898 ft | 2 kts | 8° |
| 2026-04-20 13:38 | 25.10220 | 102.93210 | 6898 ft | 4 kts | 7° |
| 2026-04-20 13:38 | 25.10240 | 102.93212 | 6898 ft | 3 kts | 6° |
| 2026-04-20 13:38 | 25.10242 | 102.93212 | 6898 ft | 0 kts | 6° |